Time;durP1;ratioP1;P1;durP2;ratioP2;P2;SDS_P1;SDS_P2;PMS_P1;PMS_P2;Temp;Humidity;BMP_temperature;BMP_pressure;BME280_temperature;BME280_humidity;BME280_pressure;Samples;Min_cycle;Max_cycle;Signal;HPM_P1;HPM_P2
2021/06/29 00:00:07;;;;;;;;;;;16.80;99.90;;;;;;5068699;28;19908;-73
2021/06/29 00:02:32;;;;;;;;;;;16.80;99.90;;;;;;5071317;28;20258;-73
2021/06/29 00:04:58;;;;;;;;;;;16.70;99.90;;;;;;5072295;28;19945;-73
2021/06/29 00:07:23;;;;;;;;;;;16.70;99.90;;;;;;5070486;28;20213;-73
2021/06/29 00:09:49;;;;;;;;;;;16.70;99.90;;;;;;5072218;28;20405;-73
2021/06/29 00:12:14;;;;;;;;;;;16.70;99.90;;;;;;5072213;28;19917;-73
2021/06/29 00:14:41;;;;;;;;;;;16.70;99.90;;;;;;5070788;28;20389;-73
2021/06/29 00:17:07;;;;;;;;;;;16.70;99.90;;;;;;5070209;28;19915;-73
2021/06/29 00:19:32;;;;;;;;;;;16.80;99.90;;;;;;5072162;28;19948;-73
2021/06/29 00:21:58;;;;;;;;;;;16.70;99.90;;;;;;5072041;28;20664;-73
2021/06/29 00:24:23;;;;;;;;;;;16.70;99.90;;;;;;5071224;28;19908;-73
2021/06/29 00:26:49;;;;;;;;;;;16.70;99.90;;;;;;5071532;28;19908;-73
2021/06/29 00:29:14;;;;;;;;;;;16.70;99.90;;;;;;5070393;28;19912;-74
2021/06/29 00:31:40;;;;;;;;;;;16.80;99.90;;;;;;5071637;28;19908;-74
2021/06/29 00:34:06;;;;;;;;;;;16.70;99.90;;;;;;5070895;28;19919;-74
2021/06/29 00:36:32;;;;;;;;;;;16.70;99.90;;;;;;5069104;28;19912;-73
2021/06/29 00:38:57;;;;;;;;;;;16.80;99.90;;;;;;5071716;28;20393;-73
2021/06/29 00:41:22;;;;;;;;;;;16.80;99.90;;;;;;5071773;28;19916;-74
2021/06/29 00:43:49;;;;;;;;;;;16.80;99.90;;;;;;5071623;28;20331;-73
2021/06/29 00:46:15;;;;;;;;;;;16.80;99.90;;;;;;5070608;28;20370;-73
2021/06/29 00:48:41;;;;;;;;;;;16.80;99.90;;;;;;5070140;28;20290;-74
2021/06/29 00:51:06;;;;;;;;;;;16.80;99.90;;;;;;5071709;28;19915;-73
2021/06/29 00:53:32;;;;;;;;;;;16.80;99.90;;;;;;5070286;28;19912;-73
2021/06/29 00:55:57;;;;;;;;;;;16.80;99.90;;;;;;5061750;28;19913;-74
2021/06/29 00:58:23;;;;;;;;;;;16.80;99.90;;;;;;5071194;28;20046;-73
2021/06/29 01:00:51;;;;;;;;;;;16.80;99.90;;;;;;5072511;28;19908;-74
2021/06/29 01:03:16;;;;;;;;;;;16.80;99.90;;;;;;5072851;28;19912;-75
2021/06/29 01:05:42;;;;;;;;;;;16.80;99.90;;;;;;5070705;28;19916;-75
2021/06/29 01:08:08;;;;;;;;;;;16.80;99.90;;;;;;5071424;28;19909;-74
2021/06/29 01:10:33;;;;;;;;;;;16.80;99.90;;;;;;5066561;28;19962;-75
2021/06/29 01:12:59;;;;;;;;;;;16.80;99.90;;;;;;5067445;28;19916;-75
2021/06/29 01:15:24;;;;;;;;;;;16.70;99.90;;;;;;5071045;28;20356;-74
2021/06/29 01:17:54;;;;;;;;;;;16.70;99.90;;;;;;5070328;28;19908;-73
2021/06/29 01:20:28;;;;;;;;;;;16.70;99.90;;;;;;5071262;28;19923;-74
2021/06/29 01:23:02;;;;;;;;;;;16.70;99.90;;;;;;5070030;28;19955;-75
2021/06/29 01:25:30;;;;;;;;;;;16.70;99.90;;;;;;5071064;28;19912;-74
2021/06/29 01:32:50;;;;;;;;;;;16.70;99.90;;;;;;5071030;28;20007;-73
2021/06/29 01:35:16;;;;;;;;;;;16.70;99.90;;;;;;5071107;28;19908;-75
2021/06/29 01:37:42;;;;;;;;;;;16.70;99.90;;;;;;5068907;28;19995;-74
2021/06/29 01:40:25;;;;;;;;;;;16.60;99.90;;;;;;5070904;28;20422;-74
2021/06/29 01:42:53;;;;;;;;;;;16.60;99.90;;;;;;5069273;28;19916;-74
2021/06/29 01:45:18;;;;;;;;;;;16.60;99.90;;;;;;5072145;28;20273;-73
2021/06/29 01:50:17;;;;;;;;;;;16.50;99.90;;;;;;5075538;28;19915;-74
2021/06/29 01:52:43;;;;;;;;;;;16.50;99.90;;;;;;5075220;28;20381;-75
2021/06/29 01:55:09;;;;;;;;;;;16.50;99.90;;;;;;5074973;28;20373;-73
2021/06/29 01:57:36;;;;;;;;;;;16.50;99.90;;;;;;5073950;28;20459;-75
2021/06/29 02:00:08;;;;;;;;;;;16.50;99.90;;;;;;5073243;28;20009;-75
2021/06/29 02:02:33;;;;;;;;;;;16.50;99.90;;;;;;5074910;28;19908;-75
2021/06/29 02:04:59;;;;;;;;;;;16.40;99.90;;;;;;5071245;28;19924;-74
2021/06/29 02:07:24;;;;;;;;;;;16.50;99.90;;;;;;5072859;28;19919;-75
2021/06/29 02:09:50;;;;;;;;;;;16.50;99.90;;;;;;5074781;28;20281;-75
2021/06/29 02:12:15;;;;;;;;;;;16.50;99.90;;;;;;5074753;28;19912;-74
2021/06/29 02:14:41;;;;;;;;;;;16.50;99.90;;;;;;5074577;28;19931;-75
2021/06/29 02:17:06;;;;;;;;;;;16.50;99.90;;;;;;5073775;28;20334;-75
2021/06/29 02:19:32;;;;;;;;;;;16.50;99.90;;;;;;5074647;28;19954;-75
2021/06/29 02:21:57;;;;;;;;;;;16.50;99.90;;;;;;5074634;28;19909;-73
2021/06/29 02:24:23;;;;;;;;;;;16.50;99.90;;;;;;5075082;28;20255;-75
2021/06/29 02:26:48;;;;;;;;;;;16.50;99.90;;;;;;5073527;28;19940;-75
2021/06/29 02:29:14;;;;;;;;;;;16.50;99.90;;;;;;5072879;28;19915;-74
2021/06/29 02:31:39;;;;;;;;;;;16.40;99.90;;;;;;5074210;28;20373;-75
2021/06/29 02:34:04;;;;;;;;;;;16.40;99.90;;;;;;5074322;28;19961;-75
2021/06/29 02:36:30;;;;;;;;;;;16.30;99.90;;;;;;5073599;28;19909;-74
2021/06/29 02:38:55;;;;;;;;;;;16.30;99.90;;;;;;5074067;28;20392;-75
2021/06/29 02:41:21;;;;;;;;;;;16.30;99.90;;;;;;5074138;28;19919;-75
2021/06/29 02:43:47;;;;;;;;;;;16.30;99.90;;;;;;5074005;28;19916;-75
2021/06/29 02:46:13;;;;;;;;;;;16.30;99.90;;;;;;5073343;28;19908;-75
2021/06/29 02:48:38;;;;;;;;;;;16.40;99.90;;;;;;5073854;28;19995;-74
2021/06/29 02:51:04;;;;;;;;;;;16.40;99.90;;;;;;5072808;28;19908;-73
2021/06/29 02:53:30;;;;;;;;;;;16.40;99.90;;;;;;5067085;28;20369;-76
2021/06/29 02:55:55;;;;;;;;;;;16.40;99.90;;;;;;5071586;28;20004;-74
2021/06/29 02:58:20;;;;;;;;;;;16.40;99.90;;;;;;5073009;28;19962;-75
2021/06/29 03:00:46;;;;;;;;;;;16.40;99.90;;;;;;5072731;28;20330;-74
2021/06/29 03:03:12;;;;;;;;;;;16.50;99.90;;;;;;5073887;28;20420;-75
2021/06/29 03:05:37;;;;;;;;;;;16.50;99.90;;;;;;5073491;28;19948;-75
2021/06/29 03:08:03;;;;;;;;;;;16.50;99.90;;;;;;5073415;28;19908;-74
2021/06/29 03:10:28;;;;;;;;;;;16.50;99.90;;;;;;5073724;28;19908;-73
2021/06/29 03:12:54;;;;;;;;;;;16.50;99.90;;;;;;5073394;28;20411;-75
2021/06/29 03:15:19;;;;;;;;;;;16.50;99.90;;;;;;5073493;28;19916;-75
2021/06/29 03:17:45;;;;;;;;;;;16.50;99.90;;;;;;5071439;28;19912;-74
2021/06/29 03:20:12;;;;;;;;;;;16.50;99.90;;;;;;5073565;28;20396;-75
2021/06/29 03:22:38;;;;;;;;;;;16.50;99.90;;;;;;5072943;28;20327;-75
2021/06/29 03:25:04;;;;;;;;;;;16.50;99.90;;;;;;5083305;28;19950;-75
2021/06/29 03:27:29;;;;;;;;;;;16.50;99.90;;;;;;5091449;28;19955;-74
2021/06/29 03:29:55;;;;;;;;;;;16.50;99.90;;;;;;5085626;28;20380;-74
2021/06/29 03:32:20;;;;;;;;;;;16.50;99.90;;;;;;5073214;28;19908;-75
2021/06/29 03:34:46;;;;;;;;;;;16.40;99.90;;;;;;5073506;28;19915;-75
2021/06/29 03:37:11;;;;;;;;;;;16.40;99.90;;;;;;5071033;28;19913;-74
2021/06/29 03:39:37;;;;;;;;;;;16.40;99.90;;;;;;5073028;28;19909;-75
2021/06/29 03:42:02;;;;;;;;;;;16.40;99.90;;;;;;5071792;28;20085;-75
2021/06/29 03:44:28;;;;;;;;;;;16.30;99.90;;;;;;5073003;28;19909;-75
2021/06/29 03:46:53;;;;;;;;;;;16.30;99.90;;;;;;5072283;28;19915;-74
2021/06/29 03:49:19;;;;;;;;;;;16.30;99.90;;;;;;5073176;28;19908;-74
2021/06/29 03:51:45;;;;;;;;;;;16.30;99.90;;;;;;5073197;28;20385;-75
2021/06/29 03:54:11;;;;;;;;;;;16.30;99.90;;;;;;5072734;28;20258;-75
2021/06/29 03:56:36;;;;;;;;;;;16.40;99.90;;;;;;5072018;28;19916;-75
2021/06/29 03:59:03;;;;;;;;;;;16.40;99.90;;;;;;5072408;28;19909;-74
2021/06/29 04:01:29;;;;;;;;;;;16.40;99.90;;;;;;5072122;28;19912;-75
2021/06/29 04:03:56;;;;;;;;;;;16.40;99.90;;;;;;5072574;28;19913;-75
2021/06/29 04:06:22;;;;;;;;;;;16.40;99.90;;;;;;5071837;28;19908;-75
2021/06/29 04:08:48;;;;;;;;;;;16.40;99.90;;;;;;5070091;28;20007;-73
2021/06/29 04:11:13;;;;;;;;;;;16.30;99.90;;;;;;5071294;28;20003;-75
2021/06/29 04:13:39;;;;;;;;;;;16.30;99.90;;;;;;5072389;28;19913;-75
2021/06/29 04:16:04;;;;;;;;;;;16.20;99.90;;;;;;5070239;28;19909;-75
2021/06/29 04:18:30;;;;;;;;;;;16.10;99.90;;;;;;5072414;28;19908;-74
2021/06/29 04:20:55;;;;;;;;;;;16.00;99.90;;;;;;5072333;28;19923;-74
2021/06/29 04:23:21;;;;;;;;;;;16.00;99.90;;;;;;5072121;28;19913;-74
2021/06/29 04:25:46;;;;;;;;;;;16.00;99.90;;;;;;5071392;28;19955;-74
2021/06/29 04:28:12;;;;;;;;;;;16.00;99.90;;;;;;5070431;28;19915;-75
2021/06/29 04:30:37;;;;;;;;;;;16.00;99.90;;;;;;5071822;28;19962;-75
2021/06/29 04:33:03;;;;;;;;;;;16.00;99.90;;;;;;5071947;28;20385;-75
2021/06/29 04:35:29;;;;;;;;;;;16.00;99.90;;;;;;5072320;28;20003;-75
2021/06/29 04:37:55;;;;;;;;;;;16.00;99.90;;;;;;5071070;28;20008;-75
2021/06/29 04:40:20;;;;;;;;;;;16.00;99.90;;;;;;5071971;28;19995;-75
2021/06/29 04:42:46;;;;;;;;;;;16.00;99.90;;;;;;5071986;28;20012;-75
2021/06/29 04:45:13;;;;;;;;;;;16.10;99.90;;;;;;5071474;28;20335;-75
2021/06/29 04:47:47;;;;;;;;;;;16.10;99.90;;;;;;5069711;28;19909;-75
2021/06/29 04:50:14;;;;;;;;;;;16.10;99.90;;;;;;5070356;28;19950;-74
2021/06/29 04:52:39;;;;;;;;;;;16.10;99.90;;;;;;5070282;28;19913;-75
2021/06/29 04:55:05;;;;;;;;;;;16.20;99.90;;;;;;5071604;28;19981;-75
2021/06/29 04:57:30;;;;;;;;;;;16.30;99.90;;;;;;5070946;28;20304;-75
2021/06/29 04:59:56;;;;;;;;;;;16.30;99.90;;;;;;5070919;28;19955;-75
2021/06/29 05:02:22;;;;;;;;;;;16.30;99.90;;;;;;5089050;28;20330;-75
2021/06/29 05:04:47;;;;;;;;;;;16.40;99.90;;;;;;5090424;28;19909;-75
2021/06/29 05:07:13;;;;;;;;;;;16.50;99.90;;;;;;5090809;28;20010;-75
2021/06/29 05:09:38;;;;;;;;;;;16.50;99.90;;;;;;5091712;28;19962;-75
2021/06/29 05:12:04;;;;;;;;;;;16.60;99.90;;;;;;5091652;28;19909;-75
2021/06/29 05:14:29;;;;;;;;;;;16.60;99.90;;;;;;5091237;28;19912;-75
2021/06/29 05:16:55;;;;;;;;;;;16.70;99.90;;;;;;5090763;28;19919;-75
2021/06/29 05:19:20;;;;;;;;;;;16.70;99.90;;;;;;5090137;28;20445;-75
2021/06/29 05:21:46;;;;;;;;;;;16.80;99.90;;;;;;5091136;28;20369;-75
2021/06/29 05:24:11;;;;;;;;;;;16.80;99.90;;;;;;5091501;28;19908;-74
2021/06/29 05:26:37;;;;;;;;;;;16.90;99.90;;;;;;5090668;28;20010;-75
2021/06/29 05:29:05;;;;;;;;;;;16.80;99.90;;;;;;5089715;28;19912;-74
2021/06/29 05:31:30;;;;;;;;;;;16.80;99.90;;;;;;5069221;28;19909;-75
2021/06/29 05:33:56;;;;;;;;;;;16.80;99.90;;;;;;5071242;28;20396;-74
2021/06/29 05:36:21;;;;;;;;;;;16.80;99.90;;;;;;5070254;28;19908;-75
2021/06/29 05:38:47;;;;;;;;;;;16.80;99.90;;;;;;5071249;28;20021;-75
2021/06/29 05:41:12;;;;;;;;;;;16.80;99.90;;;;;;5071230;28;20377;-75
2021/06/29 05:43:38;;;;;;;;;;;16.90;99.90;;;;;;5070897;28;19917;-75
2021/06/29 05:46:03;;;;;;;;;;;16.90;99.90;;;;;;5070398;28;20225;-75
2021/06/29 05:48:32;;;;;;;;;;;16.90;99.90;;;;;;5069797;28;20328;-75
2021/06/29 05:50:58;;;;;;;;;;;17.10;99.90;;;;;;5071101;28;19908;-75
2021/06/29 05:53:23;;;;;;;;;;;17.10;99.90;;;;;;5071066;28;19919;-75
2021/06/29 05:55:49;;;;;;;;;;;17.20;99.90;;;;;;5070350;28;19909;-75
2021/06/29 05:58:15;;;;;;;;;;;17.30;99.90;;;;;;5070734;28;20002;-73
2021/06/29 06:00:40;;;;;;;;;;;17.30;99.90;;;;;;5068914;28;19908;-73
2021/06/29 06:03:06;;;;;;;;;;;17.40;99.90;;;;;;5070650;28;19909;-76
2021/06/29 06:05:31;;;;;;;;;;;17.40;99.90;;;;;;5068605;28;19909;-75
2021/06/29 06:07:57;;;;;;;;;;;17.50;99.90;;;;;;5062368;28;19908;-75
2021/06/29 06:10:22;;;;;;;;;;;17.60;99.90;;;;;;5067215;28;19978;-75
2021/06/29 06:12:48;;;;;;;;;;;17.70;99.90;;;;;;5068777;28;19913;-75
2021/06/29 06:15:13;;;;;;;;;;;17.80;99.90;;;;;;5068778;28;19915;-75
2021/06/29 06:17:39;;;;;;;;;;;17.90;99.90;;;;;;5067854;28;19991;-75
2021/06/29 06:20:06;;;;;;;;;;;18.00;99.90;;;;;;5070389;28;19913;-75
2021/06/29 06:22:32;;;;;;;;;;;18.00;99.90;;;;;;5070762;28;19962;-75
2021/06/29 06:24:59;;;;;;;;;;;18.10;99.90;;;;;;5070458;28;19917;-75
2021/06/29 06:27:24;;;;;;;;;;;18.10;99.90;;;;;;5069288;28;19961;-75
2021/06/29 06:29:50;;;;;;;;;;;18.10;99.90;;;;;;5066247;28;19908;-75
2021/06/29 06:32:15;;;;;;;;;;;18.30;99.90;;;;;;5066773;28;19912;-74
2021/06/29 06:34:41;;;;;;;;;;;18.50;99.90;;;;;;5073256;28;19966;-75
2021/06/29 06:37:06;;;;;;;;;;;18.90;99.90;;;;;;5066190;28;19909;-76
2021/06/29 06:39:32;;;;;;;;;;;19.30;99.90;;;;;;5073489;28;20365;-73
2021/06/29 06:41:57;;;;;;;;;;;19.80;99.90;;;;;;5056664;28;19909;-72
2021/06/29 06:44:24;;;;;;;;;;;20.30;99.90;;;;;;5068186;28;19923;-74
2021/06/29 06:46:50;;;;;;;;;;;20.80;99.90;;;;;;5068535;28;19909;-74
2021/06/29 06:49:15;;;;;;;;;;;21.50;99.90;;;;;;5072389;28;19919;-75
2021/06/29 06:51:41;;;;;;;;;;;22.00;99.90;;;;;;5074168;28;19908;-75
2021/06/29 06:54:06;;;;;;;;;;;22.70;99.90;;;;;;5073526;28;20370;-75
2021/06/29 06:56:31;;;;;;;;;;;23.30;99.90;;;;;;5072955;28;19916;-73
2021/06/29 06:58:57;;;;;;;;;;;23.70;99.90;;;;;;5073627;28;20298;-75
2021/06/29 07:01:22;;;;;;;;;;;24.20;99.90;;;;;;5071276;28;19958;-75
2021/06/29 07:03:48;;;;;;;;;;;24.20;99.90;;;;;;5072133;28;20365;-75
2021/06/29 07:06:14;;;;;;;;;;;24.40;99.90;;;;;;5071491;28;19908;-75
2021/06/29 07:08:40;;;;;;;;;;;25.10;99.90;;;;;;5073398;28;20326;-76
2021/06/29 07:11:07;;;;;;;;;;;25.50;99.90;;;;;;5073434;28;19955;-75
2021/06/29 07:13:33;;;;;;;;;;;25.60;99.90;;;;;;5073443;28;19912;-75
2021/06/29 07:15:58;;;;;;;;;;;26.00;99.90;;;;;;5070750;28;19999;-75
2021/06/29 07:18:24;;;;;;;;;;;26.20;99.90;;;;;;5063454;28;19943;-76
2021/06/29 07:20:49;;;;;;;;;;;26.30;99.90;;;;;;5073384;28;19908;-76
2021/06/29 07:23:16;;;;;;;;;;;26.50;99.90;;;;;;5072013;28;19920;-75
2021/06/29 07:25:42;;;;;;;;;;;26.50;99.90;;;;;;5072494;28;20410;-75
2021/06/29 07:28:08;;;;;;;;;;;26.30;99.90;;;;;;5074003;28;19999;-75
2021/06/29 07:30:34;;;;;;;;;;;26.40;99.90;;;;;;5072686;28;20288;-75
2021/06/29 07:33:00;;;;;;;;;;;26.40;99.90;;;;;;5070296;28;19971;-75
2021/06/29 07:35:27;;;;;;;;;;;26.50;99.90;;;;;;5072694;28;19961;-75
2021/06/29 07:37:53;;;;;;;;;;;26.50;99.90;;;;;;5067014;28;20041;-73
2021/06/29 07:40:18;;;;;;;;;;;26.30;99.90;;;;;;5069683;28;20002;-74
2021/06/29 07:42:44;;;;;;;;;;;26.20;99.90;;;;;;5072735;28;19924;-74
2021/06/29 07:45:10;;;;;;;;;;;26.20;99.90;;;;;;5072591;28;19908;-74
2021/06/29 07:47:36;;;;;;;;;;;26.10;99.90;;;;;;5064293;28;20385;-74
2021/06/29 07:50:03;;;;;;;;;;;26.20;99.90;;;;;;5072492;28;19916;-74
2021/06/29 07:52:28;;;;;;;;;;;26.40;99.90;;;;;;5072675;28;19909;-74
2021/06/29 07:54:54;;;;;;;;;;;26.50;99.90;;;;;;5072717;28;20004;-74
2021/06/29 07:57:19;;;;;;;;;;;26.60;99.90;;;;;;5072352;28;19909;-74
2021/06/29 07:59:45;;;;;;;;;;;26.60;99.90;;;;;;5072860;28;20003;-74
2021/06/29 08:02:10;;;;;;;;;;;26.60;99.90;;;;;;5069137;28;19908;-74
2021/06/29 08:04:37;;;;;;;;;;;26.60;99.90;;;;;;5072453;28;20010;-74
2021/06/29 08:07:03;;;;;;;;;;;26.90;99.90;;;;;;5071830;28;20317;-73
2021/06/29 08:09:28;;;;;;;;;;;27.10;99.90;;;;;;5072691;28;19909;-74
2021/06/29 08:11:54;;;;;;;;;;;27.20;99.90;;;;;;5072693;28;19909;-73
2021/06/29 08:14:20;;;;;;;;;;;27.40;99.90;;;;;;5072358;28;20297;-74
2021/06/29 08:16:48;;;;;;;;;;;27.70;99.90;;;;;;5068377;28;20297;-74
2021/06/29 08:19:13;;;;;;;;;;;27.80;99.90;;;;;;5069083;28;19962;-73
2021/06/29 08:21:39;;;;;;;;;;;27.40;97.60;;;;;;5071356;28;19924;-74
2021/06/29 08:24:05;;;;;;;;;;;27.30;99.90;;;;;;5066451;28;19912;-74
2021/06/29 08:26:30;;;;;;;;;;;27.50;99.90;;;;;;5071426;28;19909;-74
2021/06/29 08:28:56;;;;;;;;;;;27.70;99.90;;;;;;5071993;28;19978;-73
2021/06/29 08:31:22;;;;;;;;;;;27.90;99.90;;;;;;5071668;28;19915;-73
2021/06/29 08:33:53;;;;;;;;;;;28.20;99.90;;;;;;5067522;28;19912;-74
2021/06/29 08:36:19;;;;;;;;;;;28.30;99.90;;;;;;5078285;28;19935;-73
2021/06/29 08:38:44;;;;;;;;;;;28.40;97.30;;;;;;5079498;28;20393;-74
2021/06/29 08:41:11;;;;;;;;;;;28.50;98.50;;;;;;5071702;28;19908;-73
2021/06/29 08:43:36;;;;;;;;;;;28.40;97.10;;;;;;5071505;28;19916;-74
2021/06/29 08:46:02;;;;;;;;;;;28.50;98.60;;;;;;5070389;28;19954;-74
2021/06/29 08:48:27;;;;;;;;;;;28.60;98.60;;;;;;5071772;28;19908;-74
2021/06/29 08:50:53;;;;;;;;;;;28.60;98.90;;;;;;5070436;28;19999;-74
2021/06/29 08:53:18;;;;;;;;;;;28.90;98.40;;;;;;5063262;28;19913;-74
2021/06/29 08:55:45;;;;;;;;;;;29.10;98.60;;;;;;5069788;28;20298;-74
2021/06/29 08:58:18;;;;;;;;;;;29.20;96.80;;;;;;5069904;28;20319;-73
2021/06/29 09:00:44;;;;;;;;;;;29.20;97.30;;;;;;5066727;28;19916;-73
2021/06/29 09:03:10;;;;;;;;;;;29.00;97.00;;;;;;5086118;28;19915;-73
2021/06/29 09:05:35;;;;;;;;;;;28.90;96.00;;;;;;5090967;28;19912;-73
2021/06/29 09:08:06;;;;;;;;;;;28.70;97.00;;;;;;5091014;28;19908;-73
2021/06/29 09:10:32;;;;;;;;;;;28.80;98.50;;;;;;5087553;28;20649;-75
2021/06/29 09:12:59;;;;;;;;;;;29.00;99.80;;;;;;5069390;28;19913;-73
2021/06/29 09:15:24;;;;;;;;;;;29.20;97.40;;;;;;5071288;28;19997;-74
2021/06/29 09:17:50;;;;;;;;;;;29.20;97.40;;;;;;5070539;28;20107;-73
2021/06/29 09:20:23;;;;;;;;;;;29.10;95.30;;;;;;5071327;28;20365;-73
2021/06/29 09:22:49;;;;;;;;;;;28.90;96.10;;;;;;5071071;28;19917;-74
2021/06/29 09:25:22;;;;;;;;;;;29.00;95.30;;;;;;5070157;28;19909;-74
2021/06/29 09:27:48;;;;;;;;;;;29.00;93.80;;;;;;5070334;28;19934;-74
2021/06/29 09:30:26;;;;;;;;;;;29.00;96.60;;;;;;5064078;28;19912;-74
2021/06/29 09:32:52;;;;;;;;;;;29.30;95.60;;;;;;5057997;28;19912;-74
2021/06/29 09:35:18;;;;;;;;;;;29.40;94.90;;;;;;5067532;28;19964;-74
2021/06/29 09:37:47;;;;;;;;;;;29.30;96.10;;;;;;5074719;28;19940;-74
2021/06/29 09:40:13;;;;;;;;;;;29.40;95.90;;;;;;5083841;28;19908;-74
2021/06/29 09:42:39;;;;;;;;;;;29.20;93.70;;;;;;5090826;28;19924;-74
2021/06/29 09:45:25;;;;;;;;;;;29.30;97.00;;;;;;5091274;28;19908;-74
2021/06/29 09:47:50;;;;;;;;;;;29.20;96.60;;;;;;5090281;28;19908;-74
2021/06/29 09:50:35;;;;;;;;;;;29.30;95.30;;;;;;5091054;28;20403;-74
2021/06/29 09:53:13;;;;;;;;;;;29.20;95.60;;;;;;5090875;28;19934;-74
2021/06/29 09:55:43;;;;;;;;;;;29.30;97.80;;;;;;5090381;28;19954;-74
2021/06/29 09:58:09;;;;;;;;;;;29.70;93.20;;;;;;5090980;28;19908;-74
2021/06/29 10:00:42;;;;;;;;;;;29.90;94.90;;;;;;5084164;28;19916;-74
2021/06/29 10:03:19;;;;;;;;;;;30.00;95.80;;;;;;5070452;28;19912;-74
2021/06/29 10:05:45;;;;;;;;;;;30.00;96.80;;;;;;5070017;28;19944;-74
2021/06/29 10:08:11;;;;;;;;;;;29.90;94.30;;;;;;5068951;28;20021;-73
2021/06/29 10:10:36;;;;;;;;;;;29.50;92.60;;;;;;5074368;28;20369;-74
2021/06/29 10:13:15;;;;;;;;;;;28.90;94.50;;;;;;5074532;28;19916;-73
2021/06/29 10:15:40;;;;;;;;;;;28.20;93.50;;;;;;5072451;28;19916;-73
2021/06/29 10:18:07;;;;;;;;;;;27.90;97.70;;;;;;5073383;28;19946;-74
2021/06/29 10:20:55;;;;;;;;;;;27.80;94.90;;;;;;5074735;28;20338;-73
2021/06/29 10:23:21;;;;;;;;;;;27.60;94.90;;;;;;5074308;28;20332;-73
2021/06/29 10:25:47;;;;;;;;;;;27.60;96.80;;;;;;5073311;28;19909;-74
2021/06/29 10:28:13;;;;;;;;;;;28.10;99.30;;;;;;5074091;28;20416;-73
2021/06/29 10:30:39;;;;;;;;;;;28.60;94.40;;;;;;5066739;28;19914;-73
2021/06/29 10:33:05;;;;;;;;;;;28.70;93.90;;;;;;5072643;28;19912;-73
2021/06/29 10:35:31;;;;;;;;;;;28.70;96.00;;;;;;5073743;28;19908;-73
2021/06/29 10:37:57;;;;;;;;;;;28.70;96.40;;;;;;5076282;28;20345;-72
2021/06/29 10:40:22;;;;;;;;;;;28.60;93.40;;;;;;5071112;28;19912;-73
2021/06/29 10:42:48;;;;;;;;;;;28.60;94.70;;;;;;5073621;28;19974;-73
2021/06/29 10:45:14;;;;;;;;;;;28.80;95.10;;;;;;5074046;28;19909;-73
2021/06/29 10:47:40;;;;;;;;;;;28.90;94.30;;;;;;5073229;28;20439;-73
2021/06/29 10:50:14;;;;;;;;;;;28.80;94.00;;;;;;5074056;28;19916;-73
2021/06/29 10:52:40;;;;;;;;;;;29.10;94.30;;;;;;5068999;28;19913;-73
2021/06/29 10:55:17;;;;;;;;;;;29.50;94.70;;;;;;5051653;28;20326;-73
2021/06/29 10:57:44;;;;;;;;;;;29.10;91.90;;;;;;5053000;28;19912;-73
2021/06/29 11:00:16;;;;;;;;;;;28.70;94.30;;;;;;5053955;28;19970;-73
2021/06/29 11:02:43;;;;;;;;;;;28.20;92.20;;;;;;5053535;28;19943;-72
2021/06/29 11:05:09;;;;;;;;;;;27.60;96.80;;;;;;5053694;28;19913;-73
2021/06/29 11:07:36;;;;;;;;;;;27.80;96.40;;;;;;5063320;28;19917;-73
2021/06/29 11:10:04;;;;;;;;;;;28.20;97.20;;;;;;5073569;28;19909;-72
2021/06/29 11:12:31;;;;;;;;;;;28.80;94.20;;;;;;5073604;28;19909;-73
2021/06/29 11:15:00;;;;;;;;;;;29.20;95.10;;;;;;5073453;28;20361;-73
2021/06/29 11:17:45;;;;;;;;;;;29.50;92.60;;;;;;5072524;28;19913;-72
2021/06/29 11:20:16;;;;;;;;;;;29.80;95.00;;;;;;5073248;28;19908;-73
2021/06/29 11:22:49;;;;;;;;;;;30.00;94.30;;;;;;5073275;28;19952;-73
2021/06/29 11:25:15;;;;;;;;;;;30.30;92.00;;;;;;5073420;28;19908;-72
2021/06/29 11:27:59;;;;;;;;;;;30.30;92.60;;;;;;5072488;28;20490;-72
2021/06/29 11:30:43;;;;;;;;;;;29.90;91.40;;;;;;5065891;28;19909;-72
2021/06/29 11:33:28;;;;;;;;;;;29.40;91.60;;;;;;5071973;28;19920;-73
2021/06/29 11:35:53;;;;;;;;;;;29.00;92.60;;;;;;5092384;28;19951;-73
2021/06/29 11:38:30;;;;;;;;;;;28.50;92.80;;;;;;5084624;28;20348;-72
2021/06/29 11:40:56;;;;;;;;;;;28.40;94.10;;;;;;5072422;28;20304;-73
2021/06/29 11:43:27;;;;;;;;;;;28.40;93.80;;;;;;5072793;28;19916;-73
2021/06/29 11:45:52;;;;;;;;;;;28.60;93.60;;;;;;5070882;28;19912;-72
2021/06/29 11:48:37;;;;;;;;;;;28.60;93.20;;;;;;5071574;28;19908;-73
2021/06/29 11:51:02;;;;;;;;;;;28.50;93.60;;;;;;5072845;28;19916;-73
2021/06/29 11:53:28;;;;;;;;;;;28.50;93.20;;;;;;5072240;28;20170;-73
2021/06/29 11:55:53;;;;;;;;;;;28.60;93.30;;;;;;5071947;28;20434;-72
2021/06/29 11:58:19;;;;;;;;;;;28.40;93.60;;;;;;5072734;28;19916;-72
2021/06/29 12:00:44;;;;;;;;;;;28.00;93.90;;;;;;5066113;28;19908;-72
2021/06/29 12:03:16;;;;;;;;;;;27.70;95.40;;;;;;5072513;28;19909;-72
2021/06/29 12:05:42;;;;;;;;;;;27.70;94.10;;;;;;5071787;28;19908;-73
2021/06/29 12:08:08;;;;;;;;;;;27.70;94.90;;;;;;5072401;28;19915;-73
2021/06/29 12:10:39;;;;;;;;;;;27.70;94.60;;;;;;5072457;28;19908;-73
2021/06/29 12:13:06;;;;;;;;;;;27.40;93.70;;;;;;5072389;28;19913;-73
2021/06/29 12:15:35;;;;;;;;;;;27.10;95.20;;;;;;5070573;28;20357;-73
2021/06/29 12:18:02;;;;;;;;;;;27.00;96.30;;;;;;5072054;28;19916;-72
2021/06/29 12:20:30;;;;;;;;;;;26.70;94.80;;;;;;5072177;28;19947;-73
2021/06/29 12:22:56;;;;;;;;;;;26.30;95.60;;;;;;5072205;28;19915;-73
2021/06/29 12:25:23;;;;;;;;;;;26.00;97.80;;;;;;5072131;28;19908;-72
2021/06/29 12:27:50;;;;;;;;;;;25.60;97.10;;;;;;5071306;28;19909;-72
2021/06/29 12:30:27;;;;;;;;;;;25.40;97.50;;;;;;5071327;28;19912;-73
2021/06/29 12:32:52;;;;;;;;;;;25.20;97.60;;;;;;5065399;28;19916;-72
2021/06/29 12:35:18;;;;;;;;;;;25.00;97.50;;;;;;5069158;28;19919;-71
2021/06/29 12:37:51;;;;;;;;;;;24.80;98.50;;;;;;5069646;28;19999;-71
2021/06/29 12:40:17;;;;;;;;;;;24.50;99.10;;;;;;5071602;28;19908;-71
2021/06/29 12:42:42;;;;;;;;;;;24.20;99.20;;;;;;5071750;28;20259;-71
2021/06/29 12:45:09;;;;;;;;;;;23.10;95.10;;;;;;5071094;28;19963;-71
2021/06/29 12:47:34;;;;;;;;;;;21.90;94.80;;;;;;5069105;28;20388;-71
2021/06/29 12:50:00;;;;;;;;;;;20.50;96.20;;;;;;5071620;28;19909;-71
2021/06/29 12:52:25;;;;;;;;;;;19.40;98.60;;;;;;5071651;28;19999;-71
2021/06/29 12:55:01;;;;;;;;;;;18.70;99.90;;;;;;5071774;28;19920;-71
2021/06/29 12:57:26;;;;;;;;;;;18.10;99.90;;;;;;5070221;28;20007;-70
2021/06/29 12:59:52;;;;;;;;;;;17.50;99.90;;;;;;5071766;28;19963;-72
2021/06/29 13:02:20;;;;;;;;;;;17.10;99.90;;;;;;5071942;28;20376;-70
2021/06/29 13:04:58;;;;;;;;;;;16.80;99.90;;;;;;5071944;28;19930;-71
2021/06/29 13:07:23;;;;;;;;;;;16.50;99.90;;;;;;5070848;28;19962;-71
2021/06/29 13:09:50;;;;;;;;;;;16.40;99.90;;;;;;5071354;28;19999;-71
2021/06/29 13:12:15;;;;;;;;;;;16.20;99.90;;;;;;5071470;28;19999;-71
2021/06/29 13:15:04;;;;;;;;;;;16.10;99.90;;;;;;5070502;28;20382;-71
2021/06/29 13:17:30;;;;;;;;;;;16.10;99.90;;;;;;5069258;28;19995;-71
2021/06/29 13:20:05;;;;;;;;;;;16.00;99.90;;;;;;5071271;28;19912;-71
2021/06/29 13:22:38;;;;;;;;;;;15.90;99.90;;;;;;5071031;28;19988;-70
2021/06/29 13:25:04;;;;;;;;;;;15.80;99.90;;;;;;5071102;28;19995;-71
2021/06/29 13:27:31;;;;;;;;;;;15.70;99.90;;;;;;5070553;28;20425;-71
2021/06/29 13:30:01;;;;;;;;;;;15.70;99.90;;;;;;5066920;28;19954;-71
2021/06/29 13:32:27;;;;;;;;;;;15.60;99.90;;;;;;5082856;28;19908;-70
2021/06/29 13:35:04;;;;;;;;;;;15.60;99.90;;;;;;5070788;28;19916;-71
2021/06/29 13:37:29;;;;;;;;;;;15.60;99.90;;;;;;5061995;28;20320;-71
2021/06/29 13:40:11;;;;;;;;;;;15.70;99.90;;;;;;5069551;28;19965;-70
2021/06/29 13:42:37;;;;;;;;;;;15.60;99.90;;;;;;5070673;28;19923;-71
2021/06/29 13:45:05;;;;;;;;;;;15.70;99.90;;;;;;5070787;28;19908;-70
2021/06/29 13:47:31;;;;;;;;;;;15.60;99.90;;;;;;5070220;28;19909;-71
2021/06/29 13:49:56;;;;;;;;;;;15.60;99.90;;;;;;5070853;28;19918;-70
2021/06/29 13:52:21;;;;;;;;;;;15.60;99.90;;;;;;5070751;28;20007;-70
2021/06/29 13:55:02;;;;;;;;;;;15.60;99.90;;;;;;5070865;28;19995;-70
2021/06/29 13:57:27;;;;;;;;;;;15.50;99.90;;;;;;5070102;28;19913;-70
2021/06/29 13:59:53;;;;;;;;;;;15.50;99.90;;;;;;5070915;28;19916;-70
2021/06/29 14:02:32;;;;;;;;;;;15.60;99.90;;;;;;5067635;28;19915;-70
2021/06/29 14:04:57;;;;;;;;;;;15.60;99.90;;;;;;5070773;28;19909;-70
2021/06/29 14:07:23;;;;;;;;;;;15.60;99.90;;;;;;5061473;28;19908;-70
2021/06/29 14:09:48;;;;;;;;;;;15.50;99.90;;;;;;5070487;28;19952;-70
2021/06/29 14:12:24;;;;;;;;;;;15.50;99.90;;;;;;5070642;28;19995;-70
2021/06/29 14:14:50;;;;;;;;;;;15.50;99.90;;;;;;5070539;28;20296;-70
2021/06/29 14:17:17;;;;;;;;;;;15.40;99.90;;;;;;5069585;28;19916;-70
2021/06/29 14:19:42;;;;;;;;;;;15.40;99.90;;;;;;5070766;28;19915;-70
2021/06/29 14:22:15;;;;;;;;;;;15.40;99.90;;;;;;5070578;28;19913;-71